Latest Weather Observations for Brisbane Airport

IDQ60801

Issued at 10:02 am EST Monday 25 July 2016 (issued every 30 minutes, with the page automatically refreshed every 10 minutes)

About weather observations | Map of weather stations | Latest weather observations for QLD | Other Formats
Station Details ID: 040842 Name: BRISBANE AERO Lat: -27.39 Lon: 153.13 Height: 4.51 m
Data from the previous 72 hours. | See also: Recent months at Brisbane Airport
Date/Time
EST
Temp
°C
App
Temp
°C
Dew
Point
°C
Rel
Hum
%
Delta-T
°C
Wind Press
QNH
hPa
Press
MSL
hPa
Rain since
9am
mm
Dir  Spd
km/h
Gust
km/h
Spd
kts
Gust
kts
25/09:30am 17.4 13.1 3.0 38 6.6 SW 15 22 8 12 1018.9 1018.8 0.0
25/09:00am 16.8 12.1 3.0 39 6.3 SW 17 26 9 14 1018.9 1018.8 0.0
25/08:30am 16.4 10.2 2.4 39 6.3 SW 24 32 13 17 1018.6 1018.5 0.0
25/08:00am 15.3 10.6 3.4 45 5.4 SSW 17 24 9 13 1018.2 1018.1 0.0
25/07:30am 15.7 11.9 4.0 45 5.4 WSW 13 17 7 9 1017.8 1017.8 0.0
25/07:00am 14.9 9.5 4.3 49 4.9 SW 22 26 12 14 1017.3 1017.3 0.0
25/06:30am 15.1 10.0 4.3 48 5.0 SW 20 24 11 13 1017.0 1017.0 0.0
25/06:00am 15.3 10.8 4.3 48 5.1 WSW 17 19 9 10 1016.5 1016.5 0.0
25/05:30am 15.0 13.9 5.0 51 4.7 CALM 0 0 0 0 1016.2 1016.2 0.0
25/05:00am 14.0 12.0 6.3 60 3.7 WSW 6 9 3 5 1015.8 1015.8 0.0
25/04:30am 13.6 11.1 6.5 62 3.4 WNW 9 13 5 7 1015.5 1015.5 0.0
25/04:00am 13.7 10.5 5.1 56 4.0 WNW 11 15 6 8 1015.3 1015.3 0.0
25/03:30am 14.2 10.8 5.8 57 4.0 NW 13 17 7 9 1015.3 1015.3 0.0
25/03:00am 14.9 10.9 4.9 51 4.7 NW 15 17 8 9 1015.1 1015.1 0.0
25/02:30am 13.8 10.9 6.3 60 3.6 W 11 13 6 7 1015.2 1015.2 0.0
25/02:00am 11.9 9.5 8.7 81 1.6 SW 11 13 6 7 1015.2 1015.2 0.0
25/01:30am 12.5 10.6 9.1 80 1.7 WSW 9 11 5 6 1015.4 1015.4 0.0
25/01:00am 12.7 11.2 9.3 80 1.7 WNW 7 7 4 4 1015.6 1015.6 0.0
25/12:30am 12.6 11.1 9.0 79 1.8 WNW 7 9 4 5 1015.7 1015.7 0.0
25/12:00am 12.7 11.1 8.9 78 1.9 WSW 7 13 4 7 1015.7 1015.7 0.0
 
Date/Time
EST
Temp
°C
App
Temp
°C
Dew
Point
°C
Rel
Hum
%
Delta-T
°C
Wind Press
QNH
hPa
Press
MSL
hPa
Rain since
9am
mm
Dir  Spd
km/h
Gust
km/h
Spd
kts
Gust
kts
24/11:30pm 13.0 12.8 9.0 77 2.0 CALM 0 0 0 0 1015.5 1015.5 0.0
24/11:00pm 13.5 12.1 9.4 76 2.1 NNW 7 7 4 4 1015.6 1015.6 0.0
24/10:30pm 13.8 12.4 9.7 76 2.1 W 7 9 4 5 1015.9 1015.9 0.0
24/10:00pm 13.7 12.3 9.6 76 2.1 WSW 7 9 4 5 1015.5 1015.5 0.0
24/09:30pm 15.2 13.4 9.6 69 2.9 NW 9 26 5 14 1015.2 1015.2 0.0
24/09:00pm 13.9 12.4 9.2 73 2.4 NW 7 11 4 6 1015.1 1015.1 0.0
24/08:30pm 14.2 12.2 10.2 77 2.1 NNW 11 20 6 11 1015.2 1015.2 0.0
24/08:00pm 14.0 11.8 9.5 74 2.3 NNW 11 19 6 10 1015.0 1015.0 0.0
24/07:30pm 15.1 13.7 9.5 69 2.9 NW 7 13 4 7 1015.0 1015.0 0.0
24/07:00pm 15.1 13.8 10.1 72 2.6 NW 7 11 4 6 1014.9 1014.9 0.0
24/06:30pm 15.4 15.6 10.5 72 2.6 CALM 0 4 0 2 1014.6 1014.6 0.0
24/06:00pm 15.3 13.5 9.5 68 3.0 NNE 9 9 5 5 1013.8 1013.8 0.0
24/05:30pm 15.3 15.2 9.5 68 3.0 CALM 0 0 0 0 1013.7 1013.7 0.0
24/05:00pm 18.4 16.4 8.8 53 5.0 NE 9 11 5 6 1013.5 1013.5 0.0
24/04:30pm 19.3 17.2 8.3 49 5.7 NE 9 11 5 6 1013.1 1013.1 0.0
24/04:00pm 19.4 16.4 7.9 47 5.9 NE 13 17 7 9 1013.1 1013.1 0.0
24/03:30pm 19.9 16.6 7.9 46 6.2 NE 15 19 8 10 1013.2 1013.2 0.0
24/03:00pm 20.3 17.2 7.4 43 6.6 NE 13 17 7 9 1013.1 1013.1 0.0
24/02:30pm 20.3 17.2 7.4 43 6.6 NNE 13 17 7 9 1013.5 1013.5 0.0
24/02:00pm 20.2 17.3 6.7 41 6.8 NE 11 17 6 9 1014.0 1014.0 0.0
24/01:30pm 20.0 17.5 6.4 41 6.8 NE 9 15 5 8 1014.6 1014.6 0.0
24/01:00pm 19.9 17.3 6.0 40 6.9 ESE 9 13 5 7 1014.8 1014.8 0.0
24/12:30pm 20.0 17.4 5.9 39 7.0 ESE 9 15 5 8 1015.1 1015.1 0.0
24/12:00pm 19.9 17.0 4.6 36 7.4 ESE 9 15 5 8 1015.7 1015.7 0.0
24/11:30am 19.7 16.5 3.0 33 7.8 ESE 9 15 5 8 1016.1 1016.1 0.0
24/11:00am 19.8 16.4 1.9 30 8.2 ESE 9 15 5 8 1016.7 1016.7 0.0
24/10:30am 19.0 15.3 0.0 28 8.3 SW 9 13 5 7 1017.2 1017.2 0.0
24/10:00am 18.6 15.2 1.8 32 7.6 WSW 9 13 5 7 1017.3 1017.3 0.0
24/09:30am 18.1 15.1 1.9 33 7.3 SW 7 11 4 6 1017.3 1017.3 0.0
24/09:00am 17.1 13.6 1.2 34 7.0 SW 9 11 5 6 1017.0 1017.0 0.0
24/08:30am 16.5 13.4 3.4 41 6.0 WNW 9 13 5 7 1016.8 1016.8 0.0
24/08:00am 14.8 12.1 3.9 48 5.0 SSW 7 9 4 5 1016.6 1016.6 0.0
24/07:30am 14.4 13.2 4.7 52 4.5 CALM 0 0 0 0 1016.5 1016.5 0.0
24/07:00am 12.9 9.7 2.9 50 4.4 SSE 9 17 5 9 1016.0 1016.0 0.0
24/06:30am 13.3 10.7 3.2 50 4.5 ESE 6 7 3 4 1015.7 1015.7 0.0
24/06:00am 12.5 8.7 4.1 56 3.8 SSW 13 17 7 9 1015.2 1015.2 0.0
24/05:30am 13.6 10.0 3.0 48 4.7 SSW 11 13 6 7 1014.3 1014.3 0.0
24/05:00am 13.1 9.7 3.8 53 4.2 SSW 11 15 6 8 1013.9 1013.9 0.0
24/04:30am 14.5 11.7 2.9 45 5.2 SSW 7 9 4 5 1013.8 1013.8 0.0
24/04:00am 14.8 10.4 2.7 44 5.4 SSW 15 24 8 13 1014.0 1014.0 0.0
24/03:30am 15.1 10.0 2.9 44 5.5 SW 19 26 10 14 1013.8 1013.8 0.0
24/03:00am 15.6 10.9 3.0 43 5.7 WSW 17 22 9 12 1013.9 1013.9 0.0
24/02:30am 16.2 11.0 3.3 42 5.9 W 20 26 11 14 1013.6 1013.6 0.0
24/02:00am 16.4 11.3 4.2 44 5.7 W 20 30 11 16 1013.5 1013.5 0.0
24/01:30am 16.3 12.6 4.6 46 5.5 W 13 17 7 9 1013.8 1013.8 0.0
24/01:00am 16.3 13.0 4.6 46 5.5 W 11 17 6 9 1013.8 1013.8 0.0
24/12:30am 15.4 12.7 5.8 52 4.6 SW 9 17 5 9 1013.7 1013.7 0.0
24/12:00am 16.3 12.7 5.2 47 5.3 WSW 13 19 7 10 1013.5 1013.5 0.0
 
Date/Time
EST
Temp
°C
App
Temp
°C
Dew
Point
°C
Rel
Hum
%
Delta-T
°C
Wind Press
QNH
hPa
Press
MSL
hPa
Rain since
9am
mm
Dir  Spd
km/h
Gust
km/h
Spd
kts
Gust
kts
23/11:30pm 17.4 13.3 4.2 41 6.2 W 15 19 8 10 1013.4 1013.4 0.0
23/11:00pm 17.2 11.9 4.8 44 5.9 WSW 22 30 12 16 1013.1 1013.1 0.0
23/10:30pm 17.4 12.6 5.6 45 5.7 SW 20 28 11 15 1013.0 1013.0 0.0
23/10:00pm 19.1 13.9 5.4 40 6.7 WSW 22 28 12 15 1012.8 1012.8 0.0
23/09:30pm 19.9 14.3 5.5 39 7.1 WSW 24 33 13 18 1012.6 1012.6 0.0
23/09:00pm 20.2 14.7 5.9 39 7.1 WSW 24 33 13 18 1012.5 1012.5 0.0
23/08:30pm 20.8 17.0 7.4 42 6.9 SSW 17 22 9 12 1012.2 1012.2 0.0
23/08:00pm 20.8 18.0 8.6 45 6.4 WSW 13 17 7 9 1011.5 1011.5 0.0
23/07:30pm 22.2 18.6 8.4 41 7.3 WSW 17 24 9 13 1011.0 1011.0 0.0
23/07:00pm 22.9 19.2 9.4 42 7.3 WSW 19 26 10 14 1010.6 1010.6 0.0
23/06:30pm 22.8 19.4 11.1 47 6.5 WSW 20 28 11 15 1009.9 1009.9 0.0
23/06:00pm 24.0 20.2 11.2 44 7.2 WSW 22 30 12 16 1009.3 1009.3 0.0
23/05:30pm 25.4 21.1 10.8 40 8.2 WSW 24 32 13 17 1009.0 1009.0 0.0
23/05:00pm 26.5 20.7 10.7 37 8.9 W 32 46 17 25 1008.4 1008.4 0.0
23/04:30pm 27.6 21.7 11.1 35 9.4 W 33 44 18 24 1008.1 1008.1 0.0
23/04:00pm 28.2 22.2 10.8 33 9.9 W 33 43 18 23 1007.7 1007.7 0.0
23/03:30pm 28.4 24.0 10.4 32 10.2 W 24 32 13 17 1007.6 1007.6 0.0
23/03:00pm 28.5 23.5 11.0 33 10.0 W 28 41 15 22 1007.5 1007.5 0.0
23/02:30pm 28.7 23.4 11.3 34 10.0 WSW 30 44 16 24 1007.3 1007.3 0.0
23/02:00pm 28.8 21.9 11.5 34 10.0 WSW 39 59 21 32 1007.4 1007.4 0.0
23/01:58pm 28.6 21.6 11.2 34 10.0 WSW 39 59 21 32 1007.3 1007.3 0.0
23/01:30pm 28.3 22.9 12.2 37 9.4 WSW 32 41 17 22 1007.5 1007.5 0.0
23/01:15pm 28.6 22.9 13.0 38 9.2 WSW 35 54 19 29 1007.6 1007.6 0.0
23/01:00pm 27.8 23.0 13.0 40 8.7 W 30 39 16 21 1007.7 1007.7 0.0
23/12:30pm 29.4 22.7 13.5 37 9.5 W 41 57 22 31 1007.8 1007.8 0.0
23/12:12pm 29.0 23.3 12.9 37 9.5 W 35 57 19 31 1007.9 1007.9 0.0
23/12:00pm 28.6 23.4 13.5 39 9.0 WSW 33 48 18 26 1008.0 1008.0 0.0
23/11:30am 28.3 23.3 15.0 44 8.1 W 35 48 19 26 1008.3 1008.3 0.0
23/11:23am 28.8 24.9 15.6 44 8.1 W 30 48 16 26 1008.4 1008.4 0.0
23/11:00am 28.4 25.0 14.7 43 8.3 W 26 39 14 21 1008.6 1008.6 0.0
23/10:30am 27.8 25.4 16.5 50 7.0 NW 24 32 13 17 1008.9 1008.9 0.0
23/10:00am 25.1 23.7 18.0 64 4.5 N 22 32 12 17 1009.2 1009.2 0.0
23/09:30am 24.6 22.4 17.9 66 4.2 N 26 33 14 18 1009.6 1009.6 0.0
23/09:00am 24.3 21.6 17.6 66 4.2 N 28 33 15 18 1009.9 1009.9 0.0
23/08:30am 22.9 21.7 17.6 72 3.3 NNW 20 28 11 15 1010.2 1010.2 0.2
23/08:00am 22.2 20.9 17.3 74 3.0 NNW 20 26 11 14 1010.1 1010.1 0.2
23/07:30am 21.3 20.1 17.4 78 2.4 NNW 20 28 11 15 1010.1 1010.1 0.2
23/07:00am 20.6 18.9 17.2 81 2.1 NNW 22 26 12 14 1009.8 1009.8 0.2
23/06:30am 20.3 18.1 17.0 81 2.0 N 24 32 13 17 1009.5 1009.5 0.2
23/06:00am 20.6 17.8 17.2 81 2.1 N 28 32 15 17 1009.3 1009.3 0.2
23/05:30am 20.7 17.8 17.1 80 2.2 N 28 35 15 19 1009.1 1009.1 0.2
23/05:00am 20.9 18.4 17.1 79 2.3 NNW 26 32 14 17 1009.1 1009.1 0.2
23/04:30am 20.8 18.3 17.0 79 2.3 NNW 26 30 14 16 1009.0 1009.0 0.2
23/04:00am 20.2 18.6 17.4 84 1.7 NNW 22 28 12 15 1009.1 1009.1 0.2
23/03:30am 20.0 18.8 17.4 85 1.6 NNW 20 28 11 15 1009.3 1009.3 0.2
23/03:00am 20.0 18.4 17.4 85 1.6 NNW 22 26 12 14 1009.3 1009.3 0.2
23/02:30am 18.7 17.7 17.6 93 0.7 NNW 19 20 10 11 1009.6 1009.6 0.2
23/02:00am 18.8 16.8 17.5 92 0.8 NNW 24 28 13 15 1009.7 1009.7 0.2
23/01:30am 17.8 17.8 17.1 96 0.4 NNW 13 17 7 9 1010.0 1010.0 0.2
23/01:00am 18.7 18.5 17.7 94 0.6 NNW 15 17 8 9 1010.3 1010.3 0.2
23/12:30am 19.3 19.6 18.0 92 0.8 NNW 13 17 7 9 1010.5 1010.5 0.2
23/12:00am 19.0 19.0 18.0 94 0.6 N 15 19 8 10 1010.7 1010.7 0.2
 
Date/Time
EST
Temp
°C
App
Temp
°C
Dew
Point
°C
Rel
Hum
%
Delta-T
°C
Wind Press
QNH
hPa
Press
MSL
hPa
Rain since
9am
mm
Dir  Spd
km/h
Gust
km/h
Spd
kts
Gust
kts
22/11:30pm 18.9 19.4 18.3 96 0.4 N 13 17 7 9 1010.9 1010.9 0.2
22/11:00pm 18.3 18.9 17.6 96 0.4 N 11 13 6 7 1011.1 1011.1 0.2
22/10:30pm 18.5 19.1 17.8 96 0.4 NNW 11 11 6 6 1011.3 1011.3 0.2
22/10:00pm 18.3 19.2 17.6 96 0.4 NNW 9 9 5 5 1011.4 1011.4 0.2
22/09:30pm 18.6 19.2 17.8 95 0.5 N 11 13 6 7 1011.4 1011.4 0.2
22/09:00pm 18.8 19.1 18.0 95 0.5 N 13 24 7 13 1011.5 1011.5 0.2
22/08:30pm 19.1 18.7 18.1 94 0.6 N 17 19 9 10 1011.5 1011.5 0.2
22/08:00pm 19.3 19.3 18.2 93 0.7 N 15 19 8 10 1011.8 1011.8 0.2
22/07:30pm 19.5 19.2 18.2 92 0.8 N 17 19 9 10 1011.8 1011.8 0.2
22/07:00pm 19.2 19.2 18.1 93 0.7 N 15 17 8 9 1011.7 1011.7 0.2
22/06:30pm 19.2 18.9 18.2 94 0.6 N 17 22 9 12 1011.6 1011.6 0.2
22/06:00pm 19.5 19.3 18.4 93 0.7 N 17 22 9 12 1011.3 1011.3 0.2
22/05:30pm 20.0 19.5 18.6 92 0.9 N 19 24 10 13 1011.1 1011.1 0.2
22/05:00pm 20.3 19.7 18.5 89 1.1 N 19 26 10 14 1011.0 1011.0 0.2
22/04:30pm 21.3 20.1 18.4 83 1.8 N 22 30 12 16 1010.7 1010.7 0.2
22/04:00pm 21.1 19.4 18.2 83 1.8 N 24 28 13 15 1010.8 1010.8 0.0
22/03:30pm 22.7 20.9 17.9 74 3.0 NNE 24 30 13 16 1011.0 1011.0 0.0
22/03:00pm 23.4 22.4 17.6 70 3.6 NNE 19 24 10 13 1011.1 1011.1 0.0
22/02:30pm 23.9 22.4 17.6 68 3.9 NNE 22 26 12 14 1011.2 1011.2 0.0
22/02:00pm 24.2 23.4 18.0 68 3.9 NNE 19 24 10 13 1011.6 1011.6 0.0
22/01:30pm 24.0 23.1 18.1 69 3.7 NNE 20 26 11 14 1011.9 1011.9 0.0
22/01:00pm 24.1 23.8 18.2 69 3.7 NE 17 19 9 10 1012.4 1012.4 0.0
22/12:30pm 23.8 23.8 18.1 70 3.6 NNE 15 19 8 10 1013.1 1013.1 0.0
22/12:00pm 23.7 24.3 18.5 72 3.3 NNE 13 17 7 9 1013.8 1013.8 0.0
22/11:30am 23.2 24.1 18.4 74 3.0 NNE 11 15 6 8 1014.5 1014.5 0.0
22/11:00am 23.1 23.7 17.8 72 3.3 N 11 17 6 9 1015.1 1015.1 0.0
22/10:30am 22.8 23.7 18.5 77 2.7 N 11 15 6 8 1015.5 1015.5 0.0

Other Formats:

Comma delimited format used in spreadsheet applications
http://www.bom.gov.au/fwo/IDQ60801/IDQ60801.94578.axf

JavaScript Object Notation format (JSON) in row-major order
http://www.bom.gov.au/fwo/IDQ60801/IDQ60801.94578.json